createdAt,value
2022-09-17T00:01:05.581Z,97873.94
2022-09-17T00:03:34.373Z,97876.69
2022-09-17T00:06:03.606Z,97868.78
2022-09-17T00:08:30.579Z,97874.97
2022-09-17T00:10:57.155Z,97886.41
2022-09-17T00:13:23.873Z,97879.41
2022-09-17T00:15:52.452Z,97882.06
2022-09-17T00:18:19.252Z,97882.97
2022-09-17T00:20:47.318Z,97878.47
2022-09-17T00:23:15.219Z,97891.69
2022-09-17T00:25:44.006Z,97882.06
2022-09-17T00:28:11.924Z,97878.50
2022-09-17T00:30:43.153Z,97878.50
2022-09-17T00:33:13.014Z,97877.59
2022-09-17T00:35:39.745Z,97868.50
2022-09-17T00:38:09.483Z,97873.03
2022-09-17T00:40:36.098Z,97872.16
2022-09-17T00:43:03.124Z,97882.72
2022-09-17T00:45:32.091Z,97870.34
2022-09-17T00:48:05.303Z,97877.44
2022-09-17T00:50:36.650Z,97873.03
2022-09-17T00:53:13.880Z,97878.28
2022-09-17T00:55:45.247Z,97869.47
2022-09-17T00:58:15.396Z,97875.66
2022-09-17T01:00:43.362Z,97880.00
2022-09-17T01:03:09.847Z,97880.88
2022-09-17T01:05:45.852Z,97880.09
2022-09-17T01:08:25.862Z,97881.06
2022-09-17T01:11:01.330Z,97880.97
2022-09-17T01:14:03.163Z,97881.03
2022-09-17T01:16:35.907Z,97886.22
2022-09-17T01:19:51.328Z,97894.22
2022-09-17T01:22:47.125Z,97887.03
2022-09-17T01:25:25.110Z,97889.66
2022-09-17T01:28:13.724Z,97892.19
2022-09-17T01:30:55.768Z,97895.75
2022-09-17T01:33:44.262Z,97898.44
2022-09-17T01:36:19.657Z,97903.66
2022-09-17T01:39:03.506Z,97906.31
2022-09-17T01:41:41.944Z,97894.75
2022-09-17T01:44:22.413Z,97904.53
2022-09-17T01:47:01.588Z,97909.78
2022-09-17T01:49:31.737Z,97911.53
2022-09-17T01:52:00.685Z,97909.75
2022-09-17T01:54:37.130Z,97914.13
2022-09-17T01:57:16.392Z,97915.09
2022-09-17T01:59:49.027Z,97924.75
2022-09-17T02:02:30.864Z,97924.81
2022-09-17T02:05:05.364Z,97930.91
2022-09-17T02:07:37.307Z,97933.56
2022-09-17T02:10:18.364Z,97933.53
2022-09-17T02:12:59.159Z,97928.16
2022-09-17T02:15:35.022Z,97935.28
2022-09-17T02:18:17.970Z,97931.78
2022-09-17T02:20:54.857Z,97940.56
2022-09-17T02:23:29.698Z,97926.41
2022-09-17T02:26:04.462Z,97938.81
2022-09-17T02:28:39.214Z,97937.94
2022-09-17T02:31:06.058Z,97938.75
2022-09-17T02:33:35.167Z,97943.22
2022-09-17T02:36:02.527Z,97938.81
2022-09-17T02:38:30.938Z,97947.69
2022-09-17T02:41:26.319Z,97948.56
2022-09-17T02:44:24.862Z,97950.38
2022-09-17T02:47:09.941Z,97949.50
2022-09-17T02:50:14.861Z,97942.41
2022-09-17T02:52:59.130Z,97949.50
2022-09-17T02:55:34.853Z,97949.50
2022-09-17T02:58:25.743Z,97949.56
2022-09-17T03:00:52.949Z,97955.69
2022-09-17T03:03:21.909Z,97953.03
2022-09-17T03:05:48.657Z,97957.50
2022-09-17T03:08:20.153Z,97953.03
2022-09-17T03:10:49.243Z,97946.97
2022-09-17T03:13:16.298Z,97950.47
2022-09-17T03:15:43.289Z,97950.47
2022-09-17T03:18:09.931Z,97956.63
2022-09-17T03:20:36.744Z,97958.41
2022-09-17T03:23:03.365Z,97958.41
2022-09-17T03:25:29.892Z,97956.66
2022-09-17T03:27:56.365Z,97956.72
2022-09-17T03:30:22.840Z,97965.47
2022-09-17T03:32:49.340Z,97958.44
2022-09-17T03:35:15.842Z,97967.22
2022-09-17T03:37:43.114Z,97967.19
2022-09-17T03:40:10.389Z,97972.44
2022-09-17T03:42:36.883Z,97966.31
2022-09-17T03:45:03.496Z,97968.09
2022-09-17T03:47:30.739Z,97962.03
2022-09-17T03:49:57.787Z,97968.13
2022-09-17T03:52:24.286Z,97975.31
2022-09-17T03:54:50.800Z,97975.34
2022-09-17T03:57:17.254Z,97977.19
2022-09-17T03:59:43.791Z,97980.66
2022-09-17T04:02:10.303Z,97975.44
2022-09-17T04:04:36.913Z,97984.31
2022-09-17T04:07:05.722Z,97980.72
2022-09-17T04:09:33.448Z,97974.56
2022-09-17T04:12:02.034Z,97983.34
2022-09-17T04:14:28.553Z,97978.06
2022-09-17T04:16:55.258Z,97975.44
2022-09-17T04:19:21.735Z,97981.66
2022-09-17T04:21:48.226Z,97984.41
2022-09-17T04:24:14.674Z,97987.94
2022-09-17T04:26:41.181Z,97994.00
2022-09-17T04:29:07.874Z,98000.16
2022-09-17T04:31:34.456Z,98002.84
2022-09-17T04:34:01.073Z,98006.34
2022-09-17T04:36:27.604Z,98002.91
2022-09-17T04:38:54.209Z,98013.47
2022-09-17T04:41:20.751Z,98011.78
2022-09-17T04:43:50.294Z,98007.41
2022-09-17T04:46:16.873Z,98010.91
2022-09-17T04:48:43.645Z,98010.91
2022-09-17T04:51:10.267Z,98010.09
2022-09-17T04:53:38.501Z,98008.31
2022-09-17T04:56:05.333Z,98011.78
2022-09-17T04:58:33.004Z,98010.84
2022-09-17T05:00:59.638Z,98027.69
2022-09-17T05:03:26.522Z,98023.34
2022-09-17T05:05:53.038Z,98029.47
2022-09-17T05:08:19.503Z,98031.22
2022-09-17T05:10:46.015Z,98029.47
2022-09-17T05:13:12.486Z,98026.81
2022-09-17T05:15:39.045Z,98030.38
2022-09-17T05:18:05.613Z,98032.97
2022-09-17T05:20:32.067Z,98031.22
2022-09-17T05:22:58.553Z,98032.97
2022-09-17T05:25:25.102Z,98044.47
2022-09-17T05:27:53.424Z,98028.59
2022-09-17T05:30:20.518Z,98033.00
2022-09-17T05:32:47.300Z,98038.28
2022-09-17T05:35:14.194Z,98032.97
2022-09-17T05:37:40.761Z,98035.59
2022-09-17T05:40:08.881Z,98029.44
2022-09-17T05:42:35.565Z,98038.34
2022-09-17T05:45:02.139Z,98041.00
2022-09-17T05:47:28.710Z,98043.63
2022-09-17T05:49:55.168Z,98037.38
2022-09-17T05:52:21.624Z,98040.84
2022-09-17T05:54:48.654Z,98040.91
2022-09-17T05:57:15.987Z,98045.34
2022-09-17T05:59:42.526Z,98047.13
2022-09-17T06:02:15.314Z,98058.56
2022-09-17T06:04:41.787Z,98063.84
2022-09-17T06:07:09.279Z,98063.00
2022-09-17T06:09:40.557Z,98078.00
2022-09-17T06:12:07.385Z,98068.28
2022-09-17T06:14:33.837Z,98078.03
2022-09-17T06:17:00.431Z,98085.09
2022-09-17T06:19:27.672Z,98080.63
2022-09-17T06:21:54.256Z,98072.69
2022-09-17T06:24:20.697Z,98072.84
2022-09-17T06:26:47.200Z,98082.59
2022-09-17T06:29:15.192Z,98089.59
2022-09-17T06:31:44.812Z,98082.63
2022-09-17T06:34:11.797Z,98080.00
2022-09-17T06:36:38.360Z,98084.50
2022-09-17T06:39:04.869Z,98087.16
2022-09-17T06:41:31.507Z,98079.25
2022-09-17T06:43:58.687Z,98083.66
2022-09-17T06:46:25.528Z,98085.44
2022-09-17T06:48:52.175Z,98083.66
2022-09-17T06:51:18.673Z,98086.25
2022-09-17T06:53:45.163Z,98078.38
2022-09-17T06:56:11.625Z,98087.22
2022-09-17T06:58:38.509Z,98079.28
2022-09-17T07:01:05.893Z,98079.25
2022-09-17T07:03:33.395Z,98081.03
2022-09-17T07:06:00.336Z,98079.09
2022-09-17T07:08:26.980Z,98080.84
2022-09-17T07:10:57.384Z,98080.00
2022-09-17T07:13:24.814Z,98090.56
2022-09-17T07:15:59.374Z,98076.31
2022-09-17T07:18:26.953Z,98078.91
2022-09-17T07:20:57.699Z,98082.38
2022-09-17T07:23:26.953Z,98084.16
2022-09-17T07:26:01.775Z,98077.94
2022-09-17T07:28:29.125Z,98091.00
2022-09-17T07:30:56.522Z,98087.50
2022-09-17T07:33:25.653Z,98101.63
2022-09-17T07:35:56.732Z,98087.66
2022-09-17T07:38:24.407Z,98091.97
2022-09-17T07:41:09.667Z,98093.69
2022-09-17T07:43:36.349Z,98092.41
2022-09-17T07:46:05.656Z,98096.56
2022-09-17T07:48:32.440Z,98096.53
2022-09-17T07:50:59.047Z,98092.16
2022-09-17T07:53:29.443Z,98103.47
2022-09-17T07:55:58.532Z,98105.28
2022-09-17T07:58:30.641Z,98107.88
2022-09-17T08:01:06.956Z,98102.50
2022-09-17T08:03:33.715Z,98100.59
2022-09-17T08:06:05.495Z,98098.38
2022-09-17T08:08:33.730Z,98089.63
2022-09-17T08:11:10.746Z,98097.78
2022-09-17T08:13:37.915Z,98096.22
2022-09-17T08:16:07.225Z,98097.09
2022-09-17T08:18:34.345Z,98107.69
2022-09-17T08:21:03.040Z,98102.31
2022-09-17T08:23:30.925Z,98108.47
2022-09-17T08:25:59.868Z,98096.84
2022-09-17T08:28:31.399Z,98095.69
2022-09-17T08:31:03.404Z,98103.13
2022-09-17T08:33:34.800Z,98098.34
2022-09-17T08:36:01.562Z,98087.06
2022-09-17T08:38:29.331Z,98094.59
2022-09-17T08:41:11.336Z,98100.97
2022-09-17T08:44:06.424Z,98089.38
2022-09-17T08:46:46.993Z,98086.28
2022-09-17T08:49:18.376Z,98089.28
2022-09-17T08:51:54.369Z,98082.78
2022-09-17T08:54:45.012Z,98074.88
2022-09-17T08:57:11.526Z,98073.81
2022-09-17T08:59:49.508Z,98083.66
2022-09-17T09:02:42.116Z,98085.72
2022-09-17T09:05:16.930Z,98092.03
2022-09-17T09:07:50.040Z,98082.59
2022-09-17T09:10:25.388Z,98086.38
2022-09-17T09:12:53.457Z,98091.38
2022-09-17T09:16:03.405Z,98092.88
2022-09-17T09:18:35.607Z,98103.03
2022-09-17T09:21:13.956Z,98090.53
2022-09-17T09:23:56.818Z,98101.91
2022-09-17T09:26:32.412Z,98097.88
2022-09-17T09:29:10.019Z,98102.59
2022-09-17T09:32:16.247Z,98107.00
2022-09-17T09:34:44.286Z,98118.31
2022-09-17T09:37:21.776Z,98107.00
2022-09-17T09:39:51.268Z,98106.56
2022-09-17T09:42:30.892Z,98091.94
2022-09-17T09:45:05.536Z,98099.41
2022-09-17T09:47:50.206Z,98097.91
2022-09-17T09:51:05.163Z,98101.97
2022-09-17T09:53:37.740Z,98096.94
2022-09-17T09:56:34.887Z,98105.06
2022-09-17T09:59:01.410Z,98118.25
2022-09-17T10:01:30.294Z,98112.00
2022-09-17T10:03:58.839Z,98122.19
2022-09-17T10:06:29.392Z,98121.38
2022-09-17T10:08:55.888Z,98118.28
2022-09-17T10:11:27.716Z,98115.72
2022-09-17T10:14:15.246Z,98108.66
2022-09-17T10:16:41.801Z,98112.19
2022-09-17T10:19:08.228Z,98119.25
2022-09-17T10:21:40.318Z,98109.56
2022-09-17T10:24:27.457Z,98123.00
2022-09-17T10:27:12.264Z,98119.31
2022-09-17T10:29:43.225Z,98116.97
2022-09-17T10:32:16.085Z,98111.13
2022-09-17T10:34:57.610Z,98110.53
2022-09-17T10:37:43.849Z,98100.13
2022-09-17T10:40:36.467Z,98110.03
2022-09-17T10:43:16.692Z,98121.44
2022-09-17T10:45:46.364Z,98111.69
2022-09-17T10:48:20.441Z,98113.38
2022-09-17T10:50:51.979Z,98116.03
2022-09-17T10:53:20.751Z,98129.13
2022-09-17T10:55:56.067Z,98111.25
2022-09-17T10:58:48.776Z,98115.28
2022-09-17T11:01:24.378Z,98105.84
2022-09-17T11:03:57.002Z,98110.78
2022-09-17T11:07:02.088Z,98103.88
2022-09-17T11:09:37.368Z,98103.97
2022-09-17T11:12:27.553Z,98117.16
2022-09-17T11:15:27.311Z,98112.84
2022-09-17T11:18:08.962Z,98113.53
2022-09-17T11:20:55.948Z,98098.78
2022-09-17T11:23:42.644Z,98099.81
2022-09-17T11:26:48.942Z,98099.88
2022-09-17T11:29:35.416Z,98098.44
2022-09-17T11:32:36.843Z,98088.59
2022-09-17T11:35:10.231Z,98098.06
2022-09-17T11:38:08.857Z,98090.91
2022-09-17T11:40:41.425Z,98095.66
2022-09-17T11:43:23.025Z,98087.63
2022-09-17T11:46:11.021Z,98088.75
2022-09-17T11:48:53.021Z,98074.19
2022-09-17T11:51:39.741Z,98078.59
2022-09-17T11:54:38.810Z,98068.88
2022-09-17T11:57:17.217Z,98066.81
2022-09-17T11:59:47.009Z,98055.44
2022-09-17T12:02:31.047Z,98052.59
2022-09-17T12:05:26.223Z,98054.50
2022-09-17T12:08:10.280Z,98060.50
2022-09-17T12:10:53.531Z,98053.19
2022-09-17T12:13:41.662Z,98074.13
2022-09-17T12:16:22.857Z,98062.66
2022-09-17T12:19:30.796Z,98058.81
2022-09-17T12:22:02.089Z,98056.09
2022-09-17T12:24:30.910Z,98049.03
2022-09-17T12:27:06.105Z,98043.81
2022-09-17T12:30:09.757Z,98043.53
2022-09-17T12:33:11.883Z,98037.00
2022-09-17T12:36:04.023Z,98041.56
2022-09-17T12:38:47.759Z,98038.09
2022-09-17T12:41:21.087Z,98036.81
2022-09-17T12:44:05.495Z,98031.84
2022-09-17T12:46:56.252Z,98042.19
2022-09-17T12:49:41.659Z,98046.59
2022-09-17T12:52:33.622Z,98038.31
2022-09-17T12:55:20.098Z,98034.53
2022-09-17T12:58:29.034Z,98027.50
2022-09-17T13:01:07.080Z,98029.28
2022-09-17T13:03:42.528Z,98029.28
2022-09-17T13:06:26.194Z,98022.19
2022-09-17T13:09:10.850Z,98016.75
2022-09-17T13:12:01.713Z,98019.41
2022-09-17T13:14:48.468Z,98032.66
2022-09-17T13:17:32.984Z,98042.16
2022-09-17T13:19:59.643Z,98023.31
2022-09-17T13:22:42.933Z,98028.22
2022-09-17T13:25:12.476Z,98039.38
2022-09-17T13:27:39.561Z,98023.72
2022-09-17T13:30:08.713Z,98028.44
2022-09-17T13:32:35.372Z,98025.13
2022-09-17T13:35:24.913Z,98022.59
2022-09-17T13:37:59.400Z,98018.31
2022-09-17T13:40:35.168Z,98019.28
2022-09-17T13:43:06.150Z,98024.50
2022-09-17T13:45:33.866Z,98027.03
2022-09-17T13:48:13.095Z,98024.50
2022-09-17T13:50:41.979Z,98023.50
2022-09-17T13:53:14.370Z,98026.16
2022-09-17T13:55:52.275Z,98030.78
2022-09-17T13:58:18.788Z,98067.25
2022-09-17T14:01:27.114Z,98088.16
2022-09-17T14:03:54.521Z,98088.41
2022-09-17T14:06:24.681Z,98079.19
2022-09-17T14:08:55.460Z,98075.78
2022-09-17T14:11:28.627Z,98073.97
2022-09-17T14:14:04.247Z,98074.09
2022-09-17T14:16:35.454Z,98067.97
2022-09-17T14:19:22.046Z,98062.72
2022-09-17T14:21:57.005Z,98055.25
2022-09-17T14:24:32.903Z,98047.75
2022-09-17T14:27:14.326Z,98039.63
2022-09-17T14:29:47.020Z,98040.69
2022-09-17T14:32:20.834Z,98035.34
2022-09-17T14:34:49.167Z,98033.28
2022-09-17T14:37:19.837Z,98030.47
2022-09-17T14:39:47.599Z,98025.78
2022-09-17T14:42:20.919Z,98023.38
2022-09-17T14:44:59.346Z,98022.50
2022-09-17T14:47:27.002Z,98016.25
2022-09-17T14:49:54.298Z,98013.66
2022-09-17T14:52:25.378Z,98018.25
2022-09-17T14:55:11.779Z,98010.25
2022-09-17T14:57:38.541Z,98017.31
2022-09-17T15:00:10.881Z,98020.13
2022-09-17T15:02:41.556Z,98040.56
2022-09-17T15:05:25.980Z,98048.25
2022-09-17T15:08:05.674Z,98084.56
2022-09-17T15:10:32.716Z,98078.81
2022-09-17T15:13:07.038Z,98093.19
2022-09-17T15:15:35.147Z,98085.44
2022-09-17T15:18:01.632Z,98086.47
2022-09-17T15:20:31.367Z,98083.91
2022-09-17T15:23:13.210Z,98072.59
2022-09-17T15:25:42.175Z,98052.19
2022-09-17T15:28:34.109Z,98050.38
2022-09-17T15:31:00.983Z,98039.75
2022-09-17T15:33:28.855Z,98027.38
2022-09-17T15:36:09.833Z,98030.78
2022-09-17T15:38:39.075Z,98029.03
2022-09-17T15:41:34.549Z,98031.72
2022-09-17T15:44:33.001Z,98023.88
2022-09-17T15:47:39.595Z,98022.84
2022-09-17T15:50:26.823Z,98004.34
2022-09-17T15:53:08.552Z,98009.63
2022-09-17T15:55:41.093Z,98005.28
2022-09-17T15:58:34.450Z,98000.88
2022-09-17T16:01:16.453Z,98006.22
2022-09-17T16:03:45.724Z,98004.44
2022-09-17T16:06:18.282Z,97999.84
2022-09-17T16:08:55.859Z,98002.63
2022-09-17T16:11:24.999Z,97994.75
2022-09-17T16:13:53.503Z,98003.69
2022-09-17T16:16:26.646Z,97996.59
2022-09-17T16:18:53.178Z,97999.16
2022-09-17T16:21:20.232Z,98002.72
2022-09-17T16:24:02.009Z,98009.78
2022-09-17T16:26:31.517Z,98036.16
2022-09-17T16:29:07.132Z,98047.84
2022-09-17T16:31:34.271Z,98043.47
2022-09-17T16:34:00.992Z,98042.59
2022-09-17T16:36:31.043Z,98049.88
2022-09-17T16:38:58.510Z,98043.69
2022-09-17T16:41:25.079Z,98052.44
2022-09-17T16:43:51.514Z,98040.06
2022-09-17T16:46:18.028Z,98035.78
2022-09-17T16:48:46.354Z,98036.69
2022-09-17T16:51:14.039Z,98045.53
2022-09-17T16:53:40.913Z,98057.00
2022-09-17T16:56:08.940Z,98054.53
2022-09-17T16:58:35.850Z,98058.94
2022-09-17T17:01:11.941Z,98060.72
2022-09-17T17:03:38.944Z,98060.72
2022-09-17T17:06:05.830Z,98052.78
2022-09-17T17:08:33.142Z,98049.19
2022-09-17T17:10:59.905Z,98055.44
2022-09-17T17:13:27.814Z,98055.44
2022-09-17T17:15:54.859Z,98053.66
2022-09-17T17:18:21.867Z,98058.03
2022-09-17T17:20:48.933Z,98051.91
2022-09-17T17:23:19.649Z,98057.19
2022-09-17T17:25:46.757Z,98053.66
2022-09-17T17:28:14.996Z,98049.25
2022-09-17T17:30:41.425Z,98055.44
2022-09-17T17:33:07.966Z,98044.88
2022-09-17T17:35:38.300Z,98050.19
2022-09-17T17:38:04.961Z,98043.06
2022-09-17T17:40:31.568Z,98049.22
2022-09-17T17:42:58.146Z,98060.72
2022-09-17T17:45:24.669Z,98064.22
2022-09-17T17:47:52.205Z,98058.06
2022-09-17T17:50:18.841Z,98050.16
2022-09-17T17:52:48.071Z,98050.25
2022-09-17T17:55:18.308Z,98059.09
2022-09-17T17:57:44.814Z,98064.25
2022-09-17T18:00:14.600Z,98058.19
2022-09-17T18:02:41.146Z,98071.41
2022-09-17T18:05:08.014Z,98059.97
2022-09-17T18:07:34.571Z,98059.97
2022-09-17T18:10:01.128Z,98064.38
2022-09-17T18:12:27.594Z,98073.16
2022-09-17T18:14:54.289Z,98074.97
2022-09-17T18:17:20.858Z,98070.53
2022-09-17T18:19:47.400Z,98072.31
2022-09-17T18:22:14.155Z,98075.91
2022-09-17T18:24:40.710Z,98074.16
2022-09-17T18:27:07.205Z,98085.63
2022-09-17T18:29:33.722Z,98087.38
2022-09-17T18:32:00.233Z,98092.66
2022-09-17T18:34:26.845Z,98101.47
2022-09-17T18:36:53.331Z,98099.72
2022-09-17T18:39:57.115Z,98102.38
2022-09-17T18:42:08.011Z,98108.53
2022-09-17T18:44:34.685Z,98102.38
2022-09-17T18:47:01.511Z,98110.22
2022-09-17T18:49:28.102Z,98114.63
2022-09-17T18:51:54.549Z,98127.91
2022-09-17T18:54:21.046Z,98119.94
2022-09-17T18:56:47.501Z,98125.25
2022-09-17T18:59:14.071Z,98128.81
2022-09-17T19:01:40.652Z,98127.03
2022-09-17T19:04:07.753Z,98125.34
2022-09-17T19:06:34.887Z,98138.50
2022-09-17T19:09:02.493Z,98139.38
2022-09-17T19:11:29.114Z,98144.69
2022-09-17T19:13:56.166Z,98142.91
2022-09-17T19:16:22.843Z,98125.28
2022-09-17T19:18:49.538Z,98135.00
2022-09-17T19:21:21.524Z,98136.81
2022-09-17T19:23:48.819Z,98142.03
2022-09-17T19:26:20.788Z,98143.81
2022-09-17T19:28:47.440Z,98128.81
2022-09-17T19:31:16.778Z,98129.72
2022-09-17T19:33:43.835Z,98137.72
2022-09-17T19:36:12.937Z,98140.31
2022-09-17T19:38:39.586Z,98137.63
2022-09-17T19:41:09.662Z,98135.84
2022-09-17T19:43:39.652Z,98139.38
2022-09-17T19:46:10.224Z,98127.06
2022-09-17T19:48:36.789Z,98130.56
2022-09-17T19:51:06.333Z,98120.00
2022-09-17T19:53:32.881Z,98119.09
2022-09-17T19:55:59.362Z,98124.41
2022-09-17T19:58:25.906Z,98122.59
2022-09-17T20:00:59.069Z,98116.44
2022-09-17T20:03:26.037Z,98127.94
2022-09-17T20:06:03.169Z,98123.56
2022-09-17T20:08:29.979Z,98128.88
2022-09-17T20:10:56.693Z,98116.53
2022-09-17T20:13:25.417Z,98124.41
2022-09-17T20:15:51.946Z,98123.56
2022-09-17T20:18:22.672Z,98127.09
2022-09-17T20:20:50.045Z,98133.22
2022-09-17T20:23:16.628Z,98124.41
2022-09-17T20:25:45.729Z,98128.81
2022-09-17T20:28:12.239Z,98136.75
2022-09-17T20:30:38.685Z,98126.13
2022-09-17T20:33:05.142Z,98136.75
2022-09-17T20:35:31.807Z,98133.22
2022-09-17T20:40:44.906Z,98143.81
2022-09-17T20:43:11.387Z,98138.56
2022-09-17T20:45:37.861Z,98143.88
2022-09-17T20:48:04.387Z,98142.13
2022-09-17T20:50:30.881Z,98153.59
2022-09-17T20:52:57.538Z,98157.13
2022-09-17T20:55:24.049Z,98173.84
2022-09-17T20:57:53.560Z,98160.66
2022-09-17T21:00:21.276Z,98168.56
2022-09-17T21:02:54.113Z,98180.03
2022-09-17T21:05:20.584Z,98173.00
2022-09-17T21:07:47.030Z,98175.63
2022-09-17T21:10:13.684Z,98178.28
2022-09-17T21:12:40.184Z,98179.16
2022-09-17T21:15:07.069Z,98172.13
2022-09-17T21:17:34.551Z,98180.84
2022-09-17T21:20:01.263Z,98168.56
2022-09-17T21:22:31.196Z,98173.94
2022-09-17T21:24:59.429Z,98166.84
2022-09-17T21:27:25.870Z,98169.47
2022-09-17T21:29:52.405Z,98167.69
2022-09-17T21:32:18.840Z,98177.41
2022-09-17T21:34:45.298Z,98172.97
2022-09-17T21:37:11.755Z,98172.91
2022-09-17T21:39:38.934Z,98178.25
2022-09-17T21:42:05.498Z,98176.47
2022-09-17T21:44:31.930Z,98172.03
2022-09-17T21:46:58.548Z,98176.44
2022-09-17T21:49:25.285Z,98180.84
2022-09-17T21:51:51.925Z,98178.19
2022-09-17T21:54:19.020Z,98179.06
2022-09-17T21:56:46.824Z,98188.72
2022-09-17T21:59:14.739Z,98189.63
2022-09-17T22:01:46.307Z,98185.22
2022-09-17T22:04:17.254Z,98186.09
2022-09-17T22:06:44.788Z,98196.66
2022-09-17T22:09:24.340Z,98202.81
2022-09-17T22:11:52.262Z,98204.56
2022-09-17T22:14:20.785Z,98207.22
2022-09-17T22:16:53.129Z,98214.25
2022-09-17T22:19:21.494Z,98213.41
2022-09-17T22:21:53.735Z,98204.59
2022-09-17T22:24:21.553Z,98203.69
2022-09-17T22:26:55.947Z,98207.22
2022-09-17T22:29:24.377Z,98209.88
2022-09-17T22:31:51.026Z,98218.72
2022-09-17T22:34:20.756Z,98212.59
2022-09-17T22:36:47.446Z,98211.78
2022-09-17T22:39:14.004Z,98212.59
2022-09-17T22:41:45.168Z,98212.59
2022-09-17T22:44:14.249Z,98223.16
2022-09-17T22:46:46.389Z,98224.06
2022-09-17T22:49:13.568Z,98224.94
2022-09-17T22:51:41.258Z,98225.84
2022-09-17T22:54:11.312Z,98237.31
2022-09-17T22:56:37.852Z,98226.78
2022-09-17T22:59:04.808Z,98232.09
2022-09-17T23:01:33.952Z,98228.56
2022-09-17T23:04:01.304Z,98224.19
2022-09-17T23:06:31.553Z,98239.22
2022-09-17T23:08:59.305Z,98217.19
2022-09-17T23:11:31.604Z,98230.41
2022-09-17T23:14:02.201Z,98225.13
2022-09-17T23:16:33.673Z,98231.28
2022-09-17T23:19:00.205Z,98219.81
2022-09-17T23:21:26.755Z,98223.38
2022-09-17T23:23:53.252Z,98221.56
2022-09-17T23:26:22.908Z,98221.53
2022-09-17T23:28:50.631Z,98221.53
2022-09-17T23:31:18.493Z,98226.81
2022-09-17T23:33:46.025Z,98212.72
2022-09-17T23:36:15.474Z,98221.53
2022-09-17T23:38:43.390Z,98222.44
2022-09-17T23:41:21.711Z,98224.16
2022-09-17T23:44:12.315Z,98226.78
2022-09-17T23:46:41.746Z,98226.78
2022-09-17T23:49:10.516Z,98233.88
2022-09-17T23:51:37.092Z,98229.44
2022-09-17T23:54:06.868Z,98233.81
2022-09-17T23:56:34.123Z,98224.16
2022-09-17T23:59:01.656Z,98229.41
